sensor_id;sensor_type;location;lat;lon;timestamp;temperature;humidity
12436;DHT22;6282;51.440;6.938;2023-02-14T00:02:26;7.60;99.90
12436;DHT22;6282;51.440;6.938;2023-02-14T00:04:52;7.50;99.90
12436;DHT22;6282;51.440;6.938;2023-02-14T00:14:41;7.40;99.90
12436;DHT22;6282;51.440;6.938;2023-02-14T00:17:26;7.30;99.90
12436;DHT22;6282;51.440;6.938;2023-02-14T00:29:41;7.80;99.90
12436;DHT22;6282;51.440;6.938;2023-02-14T00:32:08;7.40;99.90
12436;DHT22;6282;51.440;6.938;2023-02-14T00:34:36;7.40;99.90
12436;DHT22;6282;51.440;6.938;2023-02-14T00:40:19;7.30;99.90
12436;DHT22;6282;51.440;6.938;2023-02-14T00:45:13;7.50;99.90
12436;DHT22;6282;51.440;6.938;2023-02-14T00:50:12;7.50;99.90
12436;DHT22;6282;51.440;6.938;2023-02-14T00:52:38;7.40;99.90
12436;DHT22;6282;51.440;6.938;2023-02-14T01:02:27;7.10;99.90
12436;DHT22;6282;51.440;6.938;2023-02-14T01:07:22;7.10;99.90
12436;DHT22;6282;51.440;6.938;2023-02-14T01:12:16;7.60;99.90
12436;DHT22;6282;51.440;6.938;2023-02-14T01:14:43;7.30;99.90
12436;DHT22;6282;51.440;6.938;2023-02-14T01:19:36;7.20;99.90
12436;DHT22;6282;51.440;6.938;2023-02-14T01:22:07;7.50;99.90
12436;DHT22;6282;51.440;6.938;2023-02-14T01:24:35;7.20;99.90
12436;DHT22;6282;51.440;6.938;2023-02-14T01:27:02;7.30;99.90
12436;DHT22;6282;51.440;6.938;2023-02-14T01:29:29;7.50;99.90
12436;DHT22;6282;51.440;6.938;2023-02-14T01:34:23;7.60;99.90
12436;DHT22;6282;51.440;6.938;2023-02-14T01:36:50;7.50;99.90
12436;DHT22;6282;51.440;6.938;2023-02-14T01:41:46;7.50;99.90
12436;DHT22;6282;51.440;6.938;2023-02-14T01:47:18;7.50;99.90
12436;DHT22;6282;51.440;6.938;2023-02-14T01:49:46;7.40;99.90
12436;DHT22;6282;51.440;6.938;2023-02-14T01:52:17;7.30;99.90
12436;DHT22;6282;51.440;6.938;2023-02-14T01:54:50;7.30;99.90
12436;DHT22;6282;51.440;6.938;2023-02-14T01:57:20;7.30;99.90
12436;DHT22;6282;51.440;6.938;2023-02-14T01:59:51;6.90;99.90
12436;DHT22;6282;51.440;6.938;2023-02-14T02:02:19;6.90;99.90
12436;DHT22;6282;51.440;6.938;2023-02-14T02:04:51;6.70;99.90
12436;DHT22;6282;51.440;6.938;2023-02-14T02:07:21;6.60;99.90
12436;DHT22;6282;51.440;6.938;2023-02-14T02:09:51;6.60;99.90
12436;DHT22;6282;51.440;6.938;2023-02-14T02:12:21;6.30;99.90
12436;DHT22;6282;51.440;6.938;2023-02-14T02:14:50;6.00;99.90
12436;DHT22;6282;51.440;6.938;2023-02-14T02:17:25;6.30;99.90
12436;DHT22;6282;51.440;6.938;2023-02-14T02:20:21;6.20;99.90
12436;DHT22;6282;51.440;6.938;2023-02-14T02:23:23;6.00;99.90
12436;DHT22;6282;51.440;6.938;2023-02-14T02:32:19;5.60;99.90
12436;DHT22;6282;51.440;6.938;2023-02-14T02:35:29;5.70;99.90
12436;DHT22;6282;51.440;6.938;2023-02-14T02:38:08;6.20;99.90
12436;DHT22;6282;51.440;6.938;2023-02-14T02:40:45;6.20;99.90
12436;DHT22;6282;51.440;6.938;2023-02-14T02:43:22;6.90;99.90
12436;DHT22;6282;51.440;6.938;2023-02-14T02:45:57;6.90;99.90
12436;DHT22;6282;51.440;6.938;2023-02-14T02:48:41;6.50;99.90
12436;DHT22;6282;51.440;6.938;2023-02-14T02:51:14;6.30;99.90
12436;DHT22;6282;51.440;6.938;2023-02-14T02:54:03;6.50;99.90
12436;DHT22;6282;51.440;6.938;2023-02-14T02:56:34;6.80;99.90
12436;DHT22;6282;51.440;6.938;2023-02-14T02:59:15;6.80;99.90
12436;DHT22;6282;51.440;6.938;2023-02-14T03:01:47;6.80;99.90
12436;DHT22;6282;51.440;6.938;2023-02-14T03:04:16;6.90;99.90
12436;DHT22;6282;51.440;6.938;2023-02-14T03:07:03;6.90;99.90
12436;DHT22;6282;51.440;6.938;2023-02-14T03:09:53;7.00;99.90
12436;DHT22;6282;51.440;6.938;2023-02-14T03:12:41;6.80;99.90
12436;DHT22;6282;51.440;6.938;2023-02-14T03:15:20;6.90;99.90
12436;DHT22;6282;51.440;6.938;2023-02-14T03:17:55;7.00;99.90
12436;DHT22;6282;51.440;6.938;2023-02-14T03:20:48;7.30;99.90
12436;DHT22;6282;51.440;6.938;2023-02-14T03:23:24;7.20;99.90
12436;DHT22;6282;51.440;6.938;2023-02-14T03:26:01;7.10;99.90
12436;DHT22;6282;51.440;6.938;2023-02-14T03:28:38;6.80;99.90
12436;DHT22;6282;51.440;6.938;2023-02-14T03:31:13;7.10;99.90
12436;DHT22;6282;51.440;6.938;2023-02-14T03:33:50;6.70;99.90
12436;DHT22;6282;51.440;6.938;2023-02-14T03:36:24;6.80;99.90
12436;DHT22;6282;51.440;6.938;2023-02-14T03:38:58;7.00;99.90
12436;DHT22;6282;51.440;6.938;2023-02-14T03:41:32;7.00;99.90
12436;DHT22;6282;51.440;6.938;2023-02-14T03:44:04;7.10;99.90
12436;DHT22;6282;51.440;6.938;2023-02-14T03:46:35;6.90;99.90
12436;DHT22;6282;51.440;6.938;2023-02-14T03:49:09;7.20;99.90
12436;DHT22;6282;51.440;6.938;2023-02-14T03:51:37;6.90;99.90
12436;DHT22;6282;51.440;6.938;2023-02-14T03:54:09;7.00;99.90
12436;DHT22;6282;51.440;6.938;2023-02-14T03:56:40;7.10;99.90
12436;DHT22;6282;51.440;6.938;2023-02-14T03:59:13;6.70;99.90
12436;DHT22;6282;51.440;6.938;2023-02-14T04:01:44;6.80;99.90
12436;DHT22;6282;51.440;6.938;2023-02-14T04:04:13;6.60;99.90
12436;DHT22;6282;51.440;6.938;2023-02-14T04:09:09;6.80;99.90
12436;DHT22;6282;51.440;6.938;2023-02-14T04:11:36;6.60;99.90
12436;DHT22;6282;51.440;6.938;2023-02-14T04:14:03;6.80;99.90
12436;DHT22;6282;51.440;6.938;2023-02-14T04:19:18;7.20;99.90
12436;DHT22;6282;51.440;6.938;2023-02-14T04:21:50;6.50;99.90
12436;DHT22;6282;51.440;6.938;2023-02-14T04:24:18;6.50;99.90
12436;DHT22;6282;51.440;6.938;2023-02-14T04:29:35;6.50;99.90
12436;DHT22;6282;51.440;6.938;2023-02-14T04:32:02;7.00;99.90
12436;DHT22;6282;51.440;6.938;2023-02-14T04:39:25;6.90;99.90
12436;DHT22;6282;51.440;6.938;2023-02-14T04:44:19;6.40;99.90
12436;DHT22;6282;51.440;6.938;2023-02-14T04:54:07;6.30;99.90
12436;DHT22;6282;51.440;6.938;2023-02-14T04:56:35;6.90;99.90
12436;DHT22;6282;51.440;6.938;2023-02-14T05:08:51;6.70;99.90
12436;DHT22;6282;51.440;6.938;2023-02-14T05:13:46;6.70;99.90
12436;DHT22;6282;51.440;6.938;2023-02-14T05:28:29;6.40;99.90
12436;DHT22;6282;51.440;6.938;2023-02-14T05:30:57;6.60;99.90
12436;DHT22;6282;51.440;6.938;2023-02-14T05:35:52;6.40;99.90
12436;DHT22;6282;51.440;6.938;2023-02-14T05:48:09;6.50;99.90
12436;DHT22;6282;51.440;6.938;2023-02-14T06:00:24;6.70;99.90
12436;DHT22;6282;51.440;6.938;2023-02-14T06:05:20;6.80;99.90
12436;DHT22;6282;51.440;6.938;2023-02-14T06:07:47;6.30;99.90
12436;DHT22;6282;51.440;6.938;2023-02-14T06:10:16;6.40;99.90
12436;DHT22;6282;51.440;6.938;2023-02-14T06:20:06;6.30;99.90
12436;DHT22;6282;51.440;6.938;2023-02-14T06:22:36;6.10;99.90
12436;DHT22;6282;51.440;6.938;2023-02-14T06:25:04;5.90;99.90
12436;DHT22;6282;51.440;6.938;2023-02-14T06:39:48;6.10;99.90
12436;DHT22;6282;51.440;6.938;2023-02-14T06:42:15;6.00;99.90
12436;DHT22;6282;51.440;6.938;2023-02-14T06:52:04;6.10;99.90
12436;DHT22;6282;51.440;6.938;2023-02-14T06:57:00;6.20;99.90
12436;DHT22;6282;51.440;6.938;2023-02-14T07:14:12;6.40;99.90
12436;DHT22;6282;51.440;6.938;2023-02-14T07:31:23;6.40;99.90
12436;DHT22;6282;51.440;6.938;2023-02-14T07:41:11;6.20;99.90
12436;DHT22;6282;51.440;6.938;2023-02-14T07:46:05;6.20;99.90
12436;DHT22;6282;51.440;6.938;2023-02-14T07:48:34;6.50;99.90
12436;DHT22;6282;51.440;6.938;2023-02-14T07:51:01;6.40;99.90
12436;DHT22;6282;51.440;6.938;2023-02-14T07:58:23;6.30;99.90
12436;DHT22;6282;51.440;6.938;2023-02-14T08:00:50;6.60;99.90
12436;DHT22;6282;51.440;6.938;2023-02-14T08:05:47;6.70;99.90
12436;DHT22;6282;51.440;6.938;2023-02-14T08:13:15;7.00;99.90
12436;DHT22;6282;51.440;6.938;2023-02-14T08:20:55;6.90;99.90
12436;DHT22;6282;51.440;6.938;2023-02-14T08:23:22;7.20;99.90
12436;DHT22;6282;51.440;6.938;2023-02-14T08:25:50;7.10;99.90
12436;DHT22;6282;51.440;6.938;2023-02-14T08:28:17;7.40;99.90
12436;DHT22;6282;51.440;6.938;2023-02-14T08:30:44;7.10;99.90
12436;DHT22;6282;51.440;6.938;2023-02-14T08:33:11;7.40;99.90
12436;DHT22;6282;51.440;6.938;2023-02-14T08:38:07;7.40;99.90
12436;DHT22;6282;51.440;6.938;2023-02-14T08:40:34;7.50;99.90
12436;DHT22;6282;51.440;6.938;2023-02-14T08:48:00;11.90;99.90
12436;DHT22;6282;51.440;6.938;2023-02-14T08:50:27;9.80;99.90
12436;DHT22;6282;51.440;6.938;2023-02-14T08:52:54;10.00;99.90
12436;DHT22;6282;51.440;6.938;2023-02-14T08:55:22;13.50;99.90
12436;DHT22;6282;51.440;6.938;2023-02-14T09:00:17;15.60;99.90
12436;DHT22;6282;51.440;6.938;2023-02-14T09:02:44;15.90;99.90
12436;DHT22;6282;51.440;6.938;2023-02-14T09:05:10;15.90;99.90
12436;DHT22;6282;51.440;6.938;2023-02-14T09:07:37;15.00;99.90
12436;DHT22;6282;51.440;6.938;2023-02-14T09:10:05;14.60;99.90
12436;DHT22;6282;51.440;6.938;2023-02-14T09:12:34;15.30;99.90
12436;DHT22;6282;51.440;6.938;2023-02-14T09:15:00;14.40;99.90
12436;DHT22;6282;51.440;6.938;2023-02-14T09:17:27;11.80;99.90
12436;DHT22;6282;51.440;6.938;2023-02-14T09:19:55;10.80;99.90
12436;DHT22;6282;51.440;6.938;2023-02-14T09:22:22;10.70;99.90
12436;DHT22;6282;51.440;6.938;2023-02-14T09:24:48;10.40;99.90
12436;DHT22;6282;51.440;6.938;2023-02-14T09:27:15;10.20;99.90
12436;DHT22;6282;51.440;6.938;2023-02-14T09:29:43;12.00;99.90
12436;DHT22;6282;51.440;6.938;2023-02-14T09:32:10;13.60;99.90
12436;DHT22;6282;51.440;6.938;2023-02-14T09:34:37;12.00;99.90
12436;DHT22;6282;51.440;6.938;2023-02-14T09:37:04;11.00;99.90
12436;DHT22;6282;51.440;6.938;2023-02-14T09:39:48;10.30;99.90
12436;DHT22;6282;51.440;6.938;2023-02-14T09:42:33;10.10;99.90
12436;DHT22;6282;51.440;6.938;2023-02-14T09:45:05;9.90;99.90
12436;DHT22;6282;51.440;6.938;2023-02-14T09:47:38;9.90;99.90
12436;DHT22;6282;51.440;6.938;2023-02-14T09:50:12;10.10;99.90
12436;DHT22;6282;51.440;6.938;2023-02-14T09:52:42;10.00;99.90
12436;DHT22;6282;51.440;6.938;2023-02-14T09:55:13;9.90;99.90
12436;DHT22;6282;51.440;6.938;2023-02-14T09:57:47;10.00;99.90
12436;DHT22;6282;51.440;6.938;2023-02-14T10:00:25;10.20;99.90
12436;DHT22;6282;51.440;6.938;2023-02-14T10:03:08;10.40;99.90
12436;DHT22;6282;51.440;6.938;2023-02-14T10:05:41;10.30;99.90
12436;DHT22;6282;51.440;6.938;2023-02-14T10:08:26;10.30;99.90
12436;DHT22;6282;51.440;6.938;2023-02-14T10:11:01;10.20;99.90
12436;DHT22;6282;51.440;6.938;2023-02-14T10:13:34;10.20;99.90
12436;DHT22;6282;51.440;6.938;2023-02-14T10:16:09;10.20;99.90
12436;DHT22;6282;51.440;6.938;2023-02-14T10:18:41;10.40;99.90
12436;DHT22;6282;51.440;6.938;2023-02-14T10:21:15;10.50;99.90
12436;DHT22;6282;51.440;6.938;2023-02-14T10:23:47;10.60;99.90
12436;DHT22;6282;51.440;6.938;2023-02-14T10:26:18;10.60;99.90
12436;DHT22;6282;51.440;6.938;2023-02-14T10:28:48;10.50;99.90
12436;DHT22;6282;51.440;6.938;2023-02-14T10:31:21;10.60;99.90
12436;DHT22;6282;51.440;6.938;2023-02-14T10:33:52;10.60;99.90
12436;DHT22;6282;51.440;6.938;2023-02-14T10:36:25;10.60;99.90
12436;DHT22;6282;51.440;6.938;2023-02-14T10:39:00;10.50;99.90
12436;DHT22;6282;51.440;6.938;2023-02-14T10:41:36;10.60;99.90
12436;DHT22;6282;51.440;6.938;2023-02-14T10:44:19;10.70;99.90
12436;DHT22;6282;51.440;6.938;2023-02-14T10:46:55;10.70;99.90
12436;DHT22;6282;51.440;6.938;2023-02-14T10:49:36;10.70;99.90
12436;DHT22;6282;51.440;6.938;2023-02-14T10:52:13;10.70;99.90
12436;DHT22;6282;51.440;6.938;2023-02-14T10:54:44;11.00;99.90
12436;DHT22;6282;51.440;6.938;2023-02-14T10:57:14;10.80;99.90
12436;DHT22;6282;51.440;6.938;2023-02-14T10:59:48;11.00;99.90
12436;DHT22;6282;51.440;6.938;2023-02-14T11:02:21;11.10;99.90
12436;DHT22;6282;51.440;6.938;2023-02-14T11:04:50;11.20;99.90
12436;DHT22;6282;51.440;6.938;2023-02-14T11:07:19;11.00;99.90
12436;DHT22;6282;51.440;6.938;2023-02-14T11:09:46;11.30;99.90
12436;DHT22;6282;51.440;6.938;2023-02-14T11:12:32;11.30;99.90
12436;DHT22;6282;51.440;6.938;2023-02-14T11:15:08;11.30;99.90
12436;DHT22;6282;51.440;6.938;2023-02-14T11:17:37;11.60;99.90
12436;DHT22;6282;51.440;6.938;2023-02-14T11:20:21;11.60;99.90
12436;DHT22;6282;51.440;6.938;2023-02-14T11:22:49;11.60;99.90
12436;DHT22;6282;51.440;6.938;2023-02-14T11:25:19;11.60;99.90
12436;DHT22;6282;51.440;6.938;2023-02-14T11:27:47;11.60;99.90
12436;DHT22;6282;51.440;6.938;2023-02-14T11:30:24;11.70;99.90
12436;DHT22;6282;51.440;6.938;2023-02-14T11:32:53;11.60;99.90
12436;DHT22;6282;51.440;6.938;2023-02-14T11:35:22;11.50;99.90
12436;DHT22;6282;51.440;6.938;2023-02-14T11:37:53;11.70;99.90
12436;DHT22;6282;51.440;6.938;2023-02-14T11:40:26;11.80;99.90
12436;DHT22;6282;51.440;6.938;2023-02-14T11:42:57;11.80;99.90
12436;DHT22;6282;51.440;6.938;2023-02-14T11:45:30;11.90;99.90
12436;DHT22;6282;51.440;6.938;2023-02-14T11:48:15;11.80;99.90
12436;DHT22;6282;51.440;6.938;2023-02-14T11:50:43;11.90;99.90
12436;DHT22;6282;51.440;6.938;2023-02-14T11:53:20;11.90;99.90
12436;DHT22;6282;51.440;6.938;2023-02-14T11:55:51;12.00;99.90
12436;DHT22;6282;51.440;6.938;2023-02-14T11:58:30;12.00;99.90
12436;DHT22;6282;51.440;6.938;2023-02-14T12:00:58;12.00;99.90
12436;DHT22;6282;51.440;6.938;2023-02-14T12:03:37;12.00;99.90
12436;DHT22;6282;51.440;6.938;2023-02-14T12:06:05;12.00;99.90
12436;DHT22;6282;51.440;6.938;2023-02-14T12:08:32;12.20;99.90
12436;DHT22;6282;51.440;6.938;2023-02-14T12:11:04;12.10;99.90
12436;DHT22;6282;51.440;6.938;2023-02-14T12:13:31;12.00;99.90
12436;DHT22;6282;51.440;6.938;2023-02-14T12:15:58;12.30;99.90
12436;DHT22;6282;51.440;6.938;2023-02-14T12:18:45;12.30;99.90
12436;DHT22;6282;51.440;6.938;2023-02-14T12:21:40;12.10;99.90
12436;DHT22;6282;51.440;6.938;2023-02-14T12:24:19;12.30;99.90
12436;DHT22;6282;51.440;6.938;2023-02-14T12:26:54;12.30;99.90
12436;DHT22;6282;51.440;6.938;2023-02-14T12:29:26;12.30;99.90
12436;DHT22;6282;51.440;6.938;2023-02-14T12:31:59;12.60;99.90
12436;DHT22;6282;51.440;6.938;2023-02-14T12:34:28;12.30;99.90
12436;DHT22;6282;51.440;6.938;2023-02-14T12:37:18;12.20;99.90
12436;DHT22;6282;51.440;6.938;2023-02-14T12:40:00;12.20;99.90
12436;DHT22;6282;51.440;6.938;2023-02-14T12:42:43;12.40;99.90
12436;DHT22;6282;51.440;6.938;2023-02-14T12:45:17;12.40;99.90
12436;DHT22;6282;51.440;6.938;2023-02-14T12:47:52;12.30;99.90
12436;DHT22;6282;51.440;6.938;2023-02-14T12:50:34;12.40;99.90
12436;DHT22;6282;51.440;6.938;2023-02-14T12:53:34;12.50;99.90
12436;DHT22;6282;51.440;6.938;2023-02-14T12:56:10;12.40;99.90
12436;DHT22;6282;51.440;6.938;2023-02-14T12:58:50;12.40;99.90
12436;DHT22;6282;51.440;6.938;2023-02-14T13:01:31;12.50;99.90
12436;DHT22;6282;51.440;6.938;2023-02-14T13:07:05;12.70;99.90
12436;DHT22;6282;51.440;6.938;2023-02-14T13:09:38;12.60;99.90
12436;DHT22;6282;51.440;6.938;2023-02-14T13:12:15;12.70;99.90
12436;DHT22;6282;51.440;6.938;2023-02-14T13:14:56;12.60;99.90
12436;DHT22;6282;51.440;6.938;2023-02-14T13:17:34;12.70;99.90
12436;DHT22;6282;51.440;6.938;2023-02-14T13:20:18;12.70;99.90
12436;DHT22;6282;51.440;6.938;2023-02-14T13:22:51;12.70;99.90
12436;DHT22;6282;51.440;6.938;2023-02-14T13:25:24;12.70;99.90
12436;DHT22;6282;51.440;6.938;2023-02-14T13:27:57;12.70;99.90
12436;DHT22;6282;51.440;6.938;2023-02-14T13:30:27;12.70;99.90
12436;DHT22;6282;51.440;6.938;2023-02-14T13:32:59;12.60;99.90
12436;DHT22;6282;51.440;6.938;2023-02-14T13:35:29;12.50;99.90
12436;DHT22;6282;51.440;6.938;2023-02-14T13:38:00;12.50;99.90
12436;DHT22;6282;51.440;6.938;2023-02-14T13:40:29;12.60;99.90
12436;DHT22;6282;51.440;6.938;2023-02-14T13:42:58;12.70;99.90
12436;DHT22;6282;51.440;6.938;2023-02-14T13:45:53;12.80;99.90
12436;DHT22;6282;51.440;6.938;2023-02-14T13:48:22;12.90;99.90
12436;DHT22;6282;51.440;6.938;2023-02-14T13:50:52;12.80;99.90
12436;DHT22;6282;51.440;6.938;2023-02-14T13:53:39;12.70;99.90
12436;DHT22;6282;51.440;6.938;2023-02-14T13:56:30;12.80;99.90
12436;DHT22;6282;51.440;6.938;2023-02-14T13:59:00;13.00;99.90
12436;DHT22;6282;51.440;6.938;2023-02-14T14:01:31;12.90;99.90
12436;DHT22;6282;51.440;6.938;2023-02-14T14:04:00;12.80;99.90
12436;DHT22;6282;51.440;6.938;2023-02-14T14:06:28;12.90;99.90
12436;DHT22;6282;51.440;6.938;2023-02-14T14:08:57;13.10;99.90
12436;DHT22;6282;51.440;6.938;2023-02-14T14:11:57;13.00;99.90
12436;DHT22;6282;51.440;6.938;2023-02-14T14:14:34;12.90;99.90
12436;DHT22;6282;51.440;6.938;2023-02-14T14:17:20;12.80;99.90
12436;DHT22;6282;51.440;6.938;2023-02-14T14:19:47;12.90;99.90
12436;DHT22;6282;51.440;6.938;2023-02-14T14:22:15;12.90;99.90
12436;DHT22;6282;51.440;6.938;2023-02-14T14:25:02;12.90;99.90
12436;DHT22;6282;51.440;6.938;2023-02-14T14:27:33;12.70;99.90
12436;DHT22;6282;51.440;6.938;2023-02-14T14:30:03;12.60;99.90
12436;DHT22;6282;51.440;6.938;2023-02-14T14:32:32;12.70;99.90
12436;DHT22;6282;51.440;6.938;2023-02-14T14:35:02;12.90;99.90
12436;DHT22;6282;51.440;6.938;2023-02-14T14:37:31;12.90;99.90
12436;DHT22;6282;51.440;6.938;2023-02-14T14:40:00;12.90;99.90
12436;DHT22;6282;51.440;6.938;2023-02-14T14:42:33;12.80;99.90
12436;DHT22;6282;51.440;6.938;2023-02-14T14:45:03;12.80;99.90
12436;DHT22;6282;51.440;6.938;2023-02-14T14:47:37;12.60;99.90
12436;DHT22;6282;51.440;6.938;2023-02-14T14:50:12;12.60;99.90
12436;DHT22;6282;51.440;6.938;2023-02-14T14:52:42;12.70;99.90
12436;DHT22;6282;51.440;6.938;2023-02-14T14:55:17;12.60;99.90
12436;DHT22;6282;51.440;6.938;2023-02-14T14:57:49;12.60;99.90
12436;DHT22;6282;51.440;6.938;2023-02-14T15:00:22;12.60;99.90
12436;DHT22;6282;51.440;6.938;2023-02-14T15:02:59;12.60;99.90
12436;DHT22;6282;51.440;6.938;2023-02-14T15:05:29;12.60;99.90
12436;DHT22;6282;51.440;6.938;2023-02-14T15:07:57;12.50;99.90
12436;DHT22;6282;51.440;6.938;2023-02-14T15:10:26;12.40;99.90
12436;DHT22;6282;51.440;6.938;2023-02-14T15:12:56;12.40;99.90
12436;DHT22;6282;51.440;6.938;2023-02-14T15:15:42;12.50;99.90
12436;DHT22;6282;51.440;6.938;2023-02-14T15:18:13;12.50;99.90
12436;DHT22;6282;51.440;6.938;2023-02-14T15:20:40;12.50;99.90
12436;DHT22;6282;51.440;6.938;2023-02-14T15:23:15;12.50;99.90
12436;DHT22;6282;51.440;6.938;2023-02-14T15:25:44;12.40;99.90
12436;DHT22;6282;51.440;6.938;2023-02-14T15:28:14;12.30;99.90
12436;DHT22;6282;51.440;6.938;2023-02-14T15:30:55;12.20;99.90
12436;DHT22;6282;51.440;6.938;2023-02-14T15:33:23;12.30;99.90
12436;DHT22;6282;51.440;6.938;2023-02-14T15:35:50;12.20;99.90
12436;DHT22;6282;51.440;6.938;2023-02-14T15:38:19;12.30;99.90
12436;DHT22;6282;51.440;6.938;2023-02-14T15:40:49;12.20;99.90
12436;DHT22;6282;51.440;6.938;2023-02-14T15:43:25;12.20;99.90
12436;DHT22;6282;51.440;6.938;2023-02-14T15:45:57;12.20;99.90
12436;DHT22;6282;51.440;6.938;2023-02-14T15:48:27;12.10;99.90
12436;DHT22;6282;51.440;6.938;2023-02-14T15:50:56;12.10;99.90
12436;DHT22;6282;51.440;6.938;2023-02-14T15:53:34;12.00;99.90
12436;DHT22;6282;51.440;6.938;2023-02-14T15:56:04;11.80;99.90
12436;DHT22;6282;51.440;6.938;2023-02-14T15:58:34;11.90;99.90
12436;DHT22;6282;51.440;6.938;2023-02-14T16:01:03;11.90;99.90
12436;DHT22;6282;51.440;6.938;2023-02-14T16:03:33;11.90;99.90
12436;DHT22;6282;51.440;6.938;2023-02-14T16:06:02;11.70;99.90
12436;DHT22;6282;51.440;6.938;2023-02-14T16:08:32;11.80;99.90
12436;DHT22;6282;51.440;6.938;2023-02-14T16:11:01;11.70;99.90
12436;DHT22;6282;51.440;6.938;2023-02-14T16:13:30;11.60;99.90
12436;DHT22;6282;51.440;6.938;2023-02-14T16:16:01;11.60;99.90
12436;DHT22;6282;51.440;6.938;2023-02-14T16:18:34;11.50;99.90
12436;DHT22;6282;51.440;6.938;2023-02-14T16:21:16;11.40;99.90
12436;DHT22;6282;51.440;6.938;2023-02-14T16:23:45;11.30;99.90
12436;DHT22;6282;51.440;6.938;2023-02-14T16:26:13;11.20;99.90
12436;DHT22;6282;51.440;6.938;2023-02-14T16:28:39;11.30;99.90
12436;DHT22;6282;51.440;6.938;2023-02-14T16:31:13;11.20;99.90
12436;DHT22;6282;51.440;6.938;2023-02-14T16:33:41;11.10;99.90
12436;DHT22;6282;51.440;6.938;2023-02-14T16:36:14;11.00;99.90
12436;DHT22;6282;51.440;6.938;2023-02-14T16:38:44;11.20;99.90
12436;DHT22;6282;51.440;6.938;2023-02-14T16:41:15;11.00;99.90
12436;DHT22;6282;51.440;6.938;2023-02-14T16:43:43;10.80;99.90
12436;DHT22;6282;51.440;6.938;2023-02-14T16:46:13;10.70;99.90
12436;DHT22;6282;51.440;6.938;2023-02-14T16:48:40;10.50;99.90
12436;DHT22;6282;51.440;6.938;2023-02-14T16:51:10;10.40;99.90
12436;DHT22;6282;51.440;6.938;2023-02-14T16:53:38;10.30;99.90
12436;DHT22;6282;51.440;6.938;2023-02-14T16:56:07;10.30;99.90
12436;DHT22;6282;51.440;6.938;2023-02-14T16:58:37;10.30;99.90
12436;DHT22;6282;51.440;6.938;2023-02-14T17:01:04;10.30;99.90
12436;DHT22;6282;51.440;6.938;2023-02-14T17:03:33;10.20;99.90
12436;DHT22;6282;51.440;6.938;2023-02-14T17:06:00;9.90;99.90
12436;DHT22;6282;51.440;6.938;2023-02-14T17:08:28;9.80;99.90
12436;DHT22;6282;51.440;6.938;2023-02-14T17:10:56;9.60;99.90
12436;DHT22;6282;51.440;6.938;2023-02-14T17:13:26;9.30;99.90
12436;DHT22;6282;51.440;6.938;2023-02-14T17:15:54;9.20;99.90
12436;DHT22;6282;51.440;6.938;2023-02-14T17:18:22;9.30;99.90
12436;DHT22;6282;51.440;6.938;2023-02-14T17:20:51;9.40;99.90
12436;DHT22;6282;51.440;6.938;2023-02-14T17:23:18;9.40;99.90
12436;DHT22;6282;51.440;6.938;2023-02-14T17:25:46;9.30;99.90
12436;DHT22;6282;51.440;6.938;2023-02-14T17:28:12;9.20;99.90
12436;DHT22;6282;51.440;6.938;2023-02-14T17:30:39;9.30;99.90
12436;DHT22;6282;51.440;6.938;2023-02-14T17:33:06;9.10;99.90
12436;DHT22;6282;51.440;6.938;2023-02-14T17:35:33;8.90;99.90
12436;DHT22;6282;51.440;6.938;2023-02-14T17:38:02;8.70;99.90
12436;DHT22;6282;51.440;6.938;2023-02-14T17:40:29;8.80;99.90
12436;DHT22;6282;51.440;6.938;2023-02-14T17:42:56;8.60;99.90
12436;DHT22;6282;51.440;6.938;2023-02-14T17:45:23;8.80;99.90
12436;DHT22;6282;51.440;6.938;2023-02-14T17:47:50;8.90;99.90
12436;DHT22;6282;51.440;6.938;2023-02-14T17:50:17;8.90;99.90
12436;DHT22;6282;51.440;6.938;2023-02-14T17:52:44;8.60;99.90
12436;DHT22;6282;51.440;6.938;2023-02-14T17:55:12;8.60;99.90
12436;DHT22;6282;51.440;6.938;2023-02-14T17:57:40;8.50;99.90
12436;DHT22;6282;51.440;6.938;2023-02-14T18:00:08;8.20;99.90
12436;DHT22;6282;51.440;6.938;2023-02-14T18:02:35;8.10;99.90
12436;DHT22;6282;51.440;6.938;2023-02-14T18:05:02;8.30;99.90
12436;DHT22;6282;51.440;6.938;2023-02-14T18:07:30;8.30;99.90
12436;DHT22;6282;51.440;6.938;2023-02-14T18:09:57;8.30;99.90
12436;DHT22;6282;51.440;6.938;2023-02-14T18:12:25;8.20;99.90
12436;DHT22;6282;51.440;6.938;2023-02-14T18:14:52;8.20;99.90
12436;DHT22;6282;51.440;6.938;2023-02-14T18:17:20;8.10;99.90
12436;DHT22;6282;51.440;6.938;2023-02-14T18:19:47;8.20;99.90
12436;DHT22;6282;51.440;6.938;2023-02-14T18:22:14;8.30;99.90
12436;DHT22;6282;51.440;6.938;2023-02-14T18:24:41;8.10;99.90
12436;DHT22;6282;51.440;6.938;2023-02-14T18:27:08;7.90;99.90
12436;DHT22;6282;51.440;6.938;2023-02-14T18:32:04;7.80;99.90
12436;DHT22;6282;51.440;6.938;2023-02-14T18:34:31;7.80;99.90
12436;DHT22;6282;51.440;6.938;2023-02-14T18:37:01;7.90;99.90
12436;DHT22;6282;51.440;6.938;2023-02-14T18:39:28;7.80;99.90
12436;DHT22;6282;51.440;6.938;2023-02-14T18:41:57;7.70;99.90
12436;DHT22;6282;51.440;6.938;2023-02-14T18:44:24;7.70;99.90
12436;DHT22;6282;51.440;6.938;2023-02-14T18:46:51;7.50;99.90
12436;DHT22;6282;51.440;6.938;2023-02-14T18:49:19;7.30;99.90
12436;DHT22;6282;51.440;6.938;2023-02-14T18:51:46;7.20;99.90
12436;DHT22;6282;51.440;6.938;2023-02-14T18:54:14;7.40;99.90
12436;DHT22;6282;51.440;6.938;2023-02-14T18:56:41;7.30;99.90
12436;DHT22;6282;51.440;6.938;2023-02-14T18:59:09;7.30;99.90
12436;DHT22;6282;51.440;6.938;2023-02-14T19:01:40;7.40;99.90
12436;DHT22;6282;51.440;6.938;2023-02-14T19:04:08;7.40;99.90
12436;DHT22;6282;51.440;6.938;2023-02-14T19:06:38;7.50;99.90
12436;DHT22;6282;51.440;6.938;2023-02-14T19:09:08;7.30;99.90
12436;DHT22;6282;51.440;6.938;2023-02-14T19:11:35;7.10;99.90
12436;DHT22;6282;51.440;6.938;2023-02-14T19:14:03;6.90;99.90
12436;DHT22;6282;51.440;6.938;2023-02-14T19:16:35;6.80;99.90
12436;DHT22;6282;51.440;6.938;2023-02-14T19:19:03;6.80;99.90
12436;DHT22;6282;51.440;6.938;2023-02-14T19:21:32;6.70;99.90
12436;DHT22;6282;51.440;6.938;2023-02-14T19:24:02;6.90;99.90
12436;DHT22;6282;51.440;6.938;2023-02-14T19:26:32;6.90;99.90
12436;DHT22;6282;51.440;6.938;2023-02-14T19:29:04;6.90;99.90
12436;DHT22;6282;51.440;6.938;2023-02-14T19:31:33;6.80;99.90
12436;DHT22;6282;51.440;6.938;2023-02-14T19:34:02;6.70;99.90
12436;DHT22;6282;51.440;6.938;2023-02-14T19:36:29;6.70;99.90
12436;DHT22;6282;51.440;6.938;2023-02-14T19:38:56;7.10;99.90
12436;DHT22;6282;51.440;6.938;2023-02-14T19:41:26;6.70;99.90
12436;DHT22;6282;51.440;6.938;2023-02-14T19:43:55;6.70;99.90
12436;DHT22;6282;51.440;6.938;2023-02-14T19:46:22;6.70;99.90
12436;DHT22;6282;51.440;6.938;2023-02-14T19:48:50;6.80;99.90
12436;DHT22;6282;51.440;6.938;2023-02-14T19:51:20;6.60;99.90
12436;DHT22;6282;51.440;6.938;2023-02-14T19:53:47;6.50;99.90
12436;DHT22;6282;51.440;6.938;2023-02-14T19:56:17;6.60;99.90
12436;DHT22;6282;51.440;6.938;2023-02-14T19:58:47;6.40;99.90
12436;DHT22;6282;51.440;6.938;2023-02-14T20:01:22;6.10;99.90
12436;DHT22;6282;51.440;6.938;2023-02-14T20:03:49;6.30;99.90
12436;DHT22;6282;51.440;6.938;2023-02-14T20:06:16;6.20;99.90
12436;DHT22;6282;51.440;6.938;2023-02-14T20:08:43;6.30;99.90
12436;DHT22;6282;51.440;6.938;2023-02-14T20:11:21;6.20;99.90